TAF LEAM
AMD LEAM 280745Z 2807/2906 33016KT 9999 FEW050 TX17/2814Z TN10/2807Z TEMPO 2808/2816 26008KT PROB40 TEMPO 2816/2822 33018G28KT=
METAR LEAM
LEAM 280830Z VRB03KT CAVOK 12/M05 Q1016=
LEAM 280800Z VRB04KT CAVOK 11/M05 Q1015=
LEAM 280730Z VRB06KT CAVOK 10/M05 Q1015=
LEAM 280700Z 33009KT 300V020 CAVOK 10/M05 Q1014=
LEAM 280630Z 34016KT 310V010 CAVOK 10/M05 Q1014=
WC LEAM
WS LEAM
WV LEAM